Time;durP1;ratioP1;P1;durP2;ratioP2;P2;SDS_P1;SDS_P2;PMS_P1;PMS_P2;Temp;Humidity;BMP_temperature;BMP_pressure;BME280_temperature;BME280_humidity;BME280_pressure;Samples;Min_cycle;Max_cycle;Signal;HPM_P1;HPM_P2
2022/08/26 00:02:21;;;;;;;8.37;4.10;;;22.40;81.20;;;;;;7381098;19;20378;-44
2022/08/26 00:04:51;;;;;;;4.70;4.30;;;22.40;80.30;;;;;;7379164;19;20932;-44
2022/08/26 00:07:20;;;;;;;3.83;3.53;;;22.40;81.80;;;;;;7377154;19;20415;-46
2022/08/26 00:09:53;;;;;;;4.53;4.00;;;22.70;79.50;;;;;;7376051;19;20376;-46
2022/08/26 00:12:25;;;;;;;6.57;4.00;;;22.80;78.50;;;;;;7380414;19;20384;-44
2022/08/26 00:14:54;;;;;;;4.00;3.60;;;22.70;79.30;;;;;;7374324;19;20373;-46
2022/08/26 00:17:24;;;;;;;4.73;4.13;;;22.50;80.80;;;;;;7371978;19;20469;-46
2022/08/26 00:19:53;;;;;;;5.10;4.27;;;22.50;81.20;;;;;;7376126;19;20776;-46
2022/08/26 00:22:23;;;;;;;5.37;4.87;;;22.60;80.80;;;;;;7381206;19;20416;-46
2022/08/26 00:24:57;;;;;;;4.10;3.80;;;22.50;80.90;;;;;;7380993;19;20402;-46
2022/08/26 00:27:27;;;;;;;4.67;4.10;;;22.40;81.40;;;;;;7378314;19;20464;-46
2022/08/26 00:29:57;;;;;;;5.33;4.63;;;22.20;83.90;;;;;;7378345;19;21925;-46
2022/08/26 00:32:26;;;;;;;4.50;4.07;;;22.30;83.40;;;;;;7376266;19;20375;-46
2022/08/26 00:34:56;;;;;;;4.33;3.73;;;22.10;84.00;;;;;;7374422;19;20441;-46
2022/08/26 00:37:29;;;;;;;4.00;3.70;;;22.30;83.80;;;;;;7380245;19;20364;-46
2022/08/26 00:40:01;;;;;;;5.00;3.70;;;22.30;83.30;;;;;;7383577;19;20376;-46
2022/08/26 00:42:31;;;;;;;4.73;4.33;;;22.00;86.20;;;;;;7373814;19;20364;-46
2022/08/26 00:45:00;;;;;;;4.80;4.33;;;21.90;87.70;;;;;;7379231;19;21367;-46
2022/08/26 00:47:34;;;;;;;4.23;3.90;;;22.20;86.00;;;;;;7380301;19;20940;-46
2022/08/26 00:50:09;;;;;;;5.43;4.40;;;22.20;85.50;;;;;;7376243;19;20917;-44
2022/08/26 00:52:39;;;;;;;4.43;3.90;;;22.20;85.60;;;;;;7375102;19;20426;-46
2022/08/26 00:55:17;;;;;;;4.37;3.83;;;21.80;89.30;;;;;;7366747;19;20399;-46
2022/08/26 00:57:48;;;;;;;5.73;4.10;;;21.70;90.20;;;;;;7364279;19;20364;-46
2022/08/26 01:00:21;;;;;;;6.00;5.40;;;21.90;89.60;;;;;;7372888;19;20973;-46
2022/08/26 01:02:51;;;;;;;7.33;4.83;;;21.70;90.80;;;;;;7374085;19;20929;-46
2022/08/26 01:05:21;;;;;;;4.73;4.23;;;21.80;90.70;;;;;;7370200;19;20384;-46
2022/08/26 01:07:51;;;;;;;4.70;3.93;;;21.60;91.30;;;;;;7370758;19;20372;-46
2022/08/26 01:10:30;;;;;;;6.50;4.77;;;21.60;91.80;;;;;;7375724;19;20412;-46
2022/08/26 01:13:04;;;;;;;5.13;4.60;;;21.50;92.90;;;;;;7366144;19;20376;-47
2022/08/26 01:15:37;;;;;;;5.50;5.00;;;21.50;93.10;;;;;;7370013;19;20360;-46
2022/08/26 01:18:07;;;;;;;5.93;5.17;;;21.80;91.90;;;;;;7364876;19;20967;-44
2022/08/26 01:20:45;;;;;;;5.30;4.70;;;21.90;91.50;;;;;;7373222;19;20914;-44
2022/08/26 01:23:20;;;;;;;7.17;5.30;;;22.00;91.30;;;;;;7376376;19;20379;-44
2022/08/26 01:25:54;;;;;;;6.37;5.50;;;22.00;91.20;;;;;;7370146;19;20422;-44
2022/08/26 01:28:28;;;;;;;6.23;5.20;;;22.00;91.10;;;;;;7368441;19;20380;-46
2022/08/26 01:30:59;;;;;;;7.27;5.77;;;22.10;90.60;;;;;;7370311;19;21407;-44
2022/08/26 01:33:36;;;;;;;5.60;4.97;;;22.00;90.90;;;;;;7367351;19;20407;-45
2022/08/26 01:36:06;;;;;;;5.67;5.17;;;22.00;91.70;;;;;;7366525;19;20400;-45
2022/08/26 01:38:38;;;;;;;6.20;5.60;;;22.10;91.60;;;;;;7370615;19;20404;-45
2022/08/26 01:41:09;;;;;;;5.83;5.23;;;22.10;91.60;;;;;;7368238;19;20387;-45
2022/08/26 01:43:40;;;;;;;6.30;5.10;;;22.10;91.80;;;;;;7367701;19;20389;-45
2022/08/26 01:46:10;;;;;;;6.40;5.80;;;22.10;91.90;;;;;;7374284;19;20458;-45
2022/08/26 01:48:42;;;;;;;5.90;5.07;;;22.10;91.40;;;;;;7370430;19;20411;-47
2022/08/26 01:51:13;;;;;;;7.13;4.70;;;22.20;91.20;;;;;;7364627;19;20368;-46
2022/08/26 01:53:46;;;;;;;5.37;4.50;;;22.00;91.50;;;;;;7370600;19;20379;-46
2022/08/26 01:56:16;;;;;;;5.33;4.80;;;22.10;91.10;;;;;;7383900;19;21503;-46
2022/08/26 01:58:52;;;;;;;6.03;5.40;;;22.10;91.10;;;;;;7385946;19;20368;-46
2022/08/26 02:01:22;;;;;;;7.23;6.30;;;22.00;91.30;;;;;;7383926;19;20438;-46
2022/08/26 02:04:00;;;;;;;6.30;5.43;;;21.80;93.30;;;;;;7384674;19;20409;-46
2022/08/26 02:06:29;;;;;;;5.87;5.20;;;22.00;92.50;;;;;;7380169;19;20383;-46
2022/08/26 02:09:04;;;;;;;6.83;5.50;;;22.00;92.30;;;;;;7386386;19;20375;-46
2022/08/26 02:11:35;;;;;;;8.53;5.47;;;21.80;92.80;;;;;;7381791;19;20382;-46
2022/08/26 02:14:07;;;;;;;7.07;6.30;;;21.90;92.90;;;;;;7381607;19;21838;-46
2022/08/26 02:16:42;;;;;;;6.30;5.70;;;21.80;93.40;;;;;;7385422;19;20797;-46
2022/08/26 02:19:16;;;;;;;6.80;5.07;;;22.00;92.50;;;;;;7383157;19;20915;-46
2022/08/26 02:21:47;;;;;;;5.70;5.10;;;22.10;91.80;;;;;;7383601;19;20397;-46
2022/08/26 02:24:23;;;;;;;5.60;5.10;;;21.90;92.30;;;;;;7379691;19;20368;-46
2022/08/26 02:26:55;;;;;;;6.33;5.37;;;21.80;93.20;;;;;;7385706;19;20371;-47
2022/08/26 02:29:28;;;;;;;7.33;5.77;;;21.30;95.90;;;;;;7381035;19;20390;-46
2022/08/26 02:31:57;;;;;;;6.60;5.07;;;21.10;98.20;;;;;;7377193;19;20400;-45
2022/08/26 02:34:32;;;;;;;6.57;5.90;;;21.20;97.50;;;;;;7375620;19;20392;-45
2022/08/26 02:37:03;;;;;;;5.93;5.33;;;21.40;96.20;;;;;;7378443;19;20400;-45
2022/08/26 02:39:37;;;;;;;5.70;5.20;;;21.50;96.30;;;;;;7387981;19;20379;-45
2022/08/26 02:42:07;;;;;;;7.60;6.13;;;21.60;95.70;;;;;;7384745;19;21200;-46
2022/08/26 02:44:37;;;;;;;8.60;6.13;;;21.60;95.70;;;;;;7387490;19;20364;-46
2022/08/26 02:47:09;;;;;;;8.90;5.87;;;21.60;95.80;;;;;;7382806;19;20379;-46
2022/08/26 02:49:39;;;;;;;9.20;6.53;;;21.50;96.60;;;;;;7385329;19;20766;-46
2022/08/26 02:52:08;;;;;;;7.80;5.93;;;21.40;97.80;;;;;;7383812;19;20372;-46
2022/08/26 02:54:41;;;;;;;16.60;8.63;;;21.40;97.60;;;;;;7382347;19;20390;-46
2022/08/26 02:57:12;;;;;;;9.17;6.33;;;21.60;96.40;;;;;;7383103;19;20388;-46
2022/08/26 02:59:41;;;;;;;8.20;6.23;;;21.60;95.80;;;;;;7384927;19;20372;-46
2022/08/26 03:02:13;;;;;;;9.20;6.00;;;21.50;96.60;;;;;;7382201;19;20439;-46
2022/08/26 03:04:46;;;;;;;11.03;6.30;;;21.50;96.80;;;;;;7378726;19;20989;-45
2022/08/26 03:07:15;;;;;;;7.00;6.30;;;21.30;98.20;;;;;;7384638;19;20405;-46
2022/08/26 03:09:49;;;;;;;7.63;6.40;;;21.20;99.40;;;;;;7382630;19;20756;-45
2022/08/26 03:12:19;;;;;;;7.37;6.60;;;21.40;98.90;;;;;;7386266;19;20376;-45
2022/08/26 03:14:49;;;;;;;9.83;6.40;;;21.50;98.10;;;;;;7376473;19;20745;-45
2022/08/26 03:17:18;;;;;;;18.43;7.47;;;21.60;97.90;;;;;;7385914;19;20372;-46
2022/08/26 03:19:47;;;;;;;8.87;6.47;;;21.60;97.70;;;;;;7384355;19;20418;-45
2022/08/26 03:22:17;;;;;;;9.60;7.07;;;21.40;98.10;;;;;;7378582;19;20731;-45
2022/08/26 03:24:50;;;;;;;9.50;6.60;;;21.20;99.90;;;;;;7386509;19;20781;-45
2022/08/26 03:27:19;;;;;;;11.47;7.37;;;21.20;99.90;;;;;;7385435;19;20380;-45
2022/08/26 03:32:33;;;;;;;10.77;6.90;;;21.20;99.90;;;;;;7383945;19;20914;-45
2022/08/26 03:35:02;;;;;;;9.63;7.50;;;21.40;99.50;;;;;;7385677;19;20959;-45
2022/08/26 03:37:32;;;;;;;8.70;6.20;;;21.20;99.90;;;;;;7378541;19;20372;-45
2022/08/26 03:40:05;;;;;;;8.90;5.87;;;21.20;99.90;;;;;;7380709;19;20375;-45
2022/08/26 03:42:36;;;;;;;7.00;6.07;;;20.90;99.90;;;;;;7378928;19;20430;-45
2022/08/26 03:45:09;;;;;;;7.67;6.80;;;20.80;99.90;;;;;;7383517;19;20934;-45
2022/08/26 03:47:39;;;;;;;12.93;6.60;;;20.80;99.90;;;;;;7381400;19;20417;-45
2022/08/26 03:50:10;;;;;;;9.33;6.20;;;20.60;99.90;;;;;;7377399;19;20380;-46
2022/08/26 03:52:40;;;;;;;7.63;6.40;;;20.40;99.90;;;;;;7377965;19;20811;-46
2022/08/26 03:55:16;;;;;;;9.63;6.13;;;20.20;99.90;;;;;;7380483;19;20768;-46
2022/08/26 03:57:46;;;;;;;8.43;6.70;;;20.30;99.90;;;;;;7382739;19;20895;-46
2022/08/26 04:00:17;;;;;;;7.33;6.10;;;20.40;99.90;;;;;;7377462;19;20458;-46
2022/08/26 04:02:49;;;;;;;7.47;5.73;;;20.10;99.90;;;;;;7371472;19;20383;-46
2022/08/26 04:05:23;;;;;;;6.87;5.13;;;20.00;99.90;;;;;;7377396;19;21032;-46
2022/08/26 04:07:53;;;;;;;6.60;6.00;;;20.30;99.90;;;;;;7374021;19;20479;-46
2022/08/26 04:10:26;;;;;;;7.10;5.70;;;20.70;99.90;;;;;;7372621;19;20384;-46
2022/08/26 04:12:55;;;;;;;7.17;6.17;;;20.70;99.90;;;;;;7383922;19;21005;-46
2022/08/26 04:15:25;;;;;;;8.63;6.17;;;20.80;99.90;;;;;;7375632;19;21045;-46
2022/08/26 04:17:55;;;;;;;7.07;5.77;;;21.20;99.90;;;;;;7379638;19;20420;-46
2022/08/26 04:20:24;;;;;;;8.63;5.90;;;21.30;98.80;;;;;;7378383;19;21313;-46
2022/08/26 04:22:54;;;;;;;7.00;6.27;;;20.90;99.90;;;;;;7379715;19;20744;-46
2022/08/26 04:25:29;;;;;;;14.80;5.90;;;20.70;99.90;;;;;;7376488;19;20495;-46
2022/08/26 04:27:59;;;;;;;27.87;7.73;;;20.90;99.90;;;;;;7377464;19;20389;-46
2022/08/26 04:30:28;;;;;;;8.80;5.63;;;20.80;99.90;;;;;;7370105;19;20782;-47
2022/08/26 04:32:58;;;;;;;7.07;5.60;;;20.80;99.90;;;;;;7379108;19;20372;-47
2022/08/26 04:35:27;;;;;;;6.53;5.93;;;20.80;99.90;;;;;;7370219;19;21099;-47
2022/08/26 04:37:57;;;;;;;7.03;5.70;;;20.90;99.90;;;;;;7368648;19;20408;-47
2022/08/26 04:40:29;;;;;;;7.40;5.77;;;20.60;99.90;;;;;;7372918;19;20731;-47
2022/08/26 04:42:59;;;;;;;7.57;6.10;;;20.20;99.90;;;;;;7377901;19;20757;-46
2022/08/26 04:45:28;;;;;;;7.23;5.87;;;20.10;99.90;;;;;;7377361;19;20423;-47
2022/08/26 04:48:00;;;;;;;6.70;6.10;;;20.30;99.90;;;;;;7384055;19;20829;-47
2022/08/26 04:50:29;;;;;;;6.90;5.90;;;20.50;99.90;;;;;;7379594;19;20396;-47
2022/08/26 04:53:01;;;;;;;7.30;6.10;;;20.60;99.90;;;;;;7379084;19;20379;-47
2022/08/26 04:55:33;;;;;;;7.00;6.27;;;20.70;99.90;;;;;;7375054;19;20384;-47
2022/08/26 04:58:03;;;;;;;6.57;5.50;;;21.00;99.90;;;;;;7372654;19;21012;-47
2022/08/26 05:00:32;;;;;;;8.33;6.47;;;20.90;99.90;;;;;;7373300;19;20432;-47
2022/08/26 05:03:02;;;;;;;6.97;6.20;;;20.80;99.90;;;;;;7361791;19;20364;-47
2022/08/26 05:05:32;;;;;;;7.07;5.90;;;20.40;99.90;;;;;;7369756;19;20784;-47
2022/08/26 05:08:01;;;;;;;8.40;6.27;;;20.50;99.90;;;;;;7379033;19;20910;-47
2022/08/26 05:10:34;;;;;;;6.60;6.00;;;20.90;99.90;;;;;;7376686;19;20898;-47
2022/08/26 05:13:03;;;;;;;7.27;5.80;;;21.00;99.90;;;;;;7372599;19;20809;-47
2022/08/26 05:15:33;;;;;;;6.90;5.80;;;20.90;99.90;;;;;;7362062;19;20902;-47
2022/08/26 05:18:02;;;;;;;6.13;5.53;;;20.70;99.90;;;;;;7375575;19;20368;-47
2022/08/26 05:20:32;;;;;;;7.93;5.73;;;20.70;99.90;;;;;;7380264;19;21425;-47
2022/08/26 05:23:03;;;;;;;8.57;5.90;;;20.90;99.90;;;;;;7384392;19;20381;-47
2022/08/26 05:25:40;;;;;;;6.77;5.87;;;21.00;99.90;;;;;;7383062;19;20766;-47
2022/08/26 05:28:11;;;;;;;7.40;5.53;;;21.10;99.90;;;;;;7389663;19;20383;-47
2022/08/26 05:30:41;;;;;;;6.10;5.57;;;21.20;99.90;;;;;;7396283;19;20392;-47
2022/08/26 05:33:11;;;;;;;8.27;6.53;;;21.20;99.40;;;;;;7394931;19;20382;-47
2022/08/26 05:35:41;;;;;;;6.60;5.90;;;21.20;99.80;;;;;;7394998;19;20387;-47
2022/08/26 05:38:14;;;;;;;6.27;5.67;;;21.00;99.90;;;;;;7393388;19;20763;-47
2022/08/26 05:40:48;;;;;;;8.90;6.40;;;20.70;99.90;;;;;;7395340;19;20741;-47
2022/08/26 05:43:19;;;;;;;7.50;6.60;;;20.80;99.90;;;;;;7389874;19;20371;-47
2022/08/26 05:45:51;;;;;;;7.60;5.53;;;20.90;99.90;;;;;;7381603;19;20416;-47
2022/08/26 05:48:22;;;;;;;13.50;6.70;;;21.10;99.90;;;;;;7387948;19;20371;-47
2022/08/26 05:50:53;;;;;;;7.10;6.40;;;21.30;99.00;;;;;;7392494;19;20431;-47
2022/08/26 05:53:24;;;;;;;7.07;6.40;;;21.40;98.10;;;;;;7389784;19;20367;-45
2022/08/26 05:55:57;;;;;;;6.67;6.03;;;21.50;96.50;;;;;;7390660;19;20379;-47
2022/08/26 05:58:27;;;;;;;9.50;6.20;;;21.70;95.20;;;;;;7395865;19;20376;-47
2022/08/26 06:01:02;;;;;;;6.50;5.77;;;21.80;94.10;;;;;;7391407;19;20439;-46
2022/08/26 06:03:33;;;;;;;10.50;5.70;;;21.90;94.40;;;;;;7397059;19;20375;-46
2022/08/26 06:06:07;;;;;;;7.40;5.13;;;21.90;94.40;;;;;;7394589;19;20391;-46
2022/08/26 06:08:37;;;;;;;6.90;6.30;;;21.90;93.90;;;;;;7393809;19;20364;-46
2022/08/26 06:11:14;;;;;;;8.80;6.03;;;22.00;93.90;;;;;;7393788;19;20459;-47
2022/08/26 06:13:43;;;;;;;8.30;6.20;;;22.00;93.80;;;;;;7394157;19;20376;-46
2022/08/26 06:16:19;;;;;;;6.90;6.17;;;21.70;95.10;;;;;;7388539;19;20412;-44
2022/08/26 06:18:49;;;;;;;7.50;6.80;;;21.60;96.30;;;;;;7393803;19;20387;-46
2022/08/26 06:21:22;;;;;;;6.70;6.00;;;21.50;97.10;;;;;;7396641;19;20387;-44
2022/08/26 06:26:40;;;;;;;8.03;6.60;;;21.70;96.60;;;;;;7395243;19;20805;-46
2022/08/26 06:29:10;;;;;;;7.70;6.33;;;21.80;96.50;;;;;;7395780;19;20387;-46
2022/08/26 06:31:39;;;;;;;7.23;5.60;;;21.80;95.90;;;;;;7390845;19;20371;-46
2022/08/26 06:34:09;;;;;;;8.97;5.60;;;21.80;96.60;;;;;;7394264;19;20383;-46
2022/08/26 06:36:39;;;;;;;15.63;6.43;;;21.90;96.00;;;;;;7397085;19;20391;-46
2022/08/26 06:39:13;;;;;;;17.23;8.67;;;21.90;96.10;;;;;;7392269;19;20524;-47
2022/08/26 06:41:46;;;;;;;16.40;7.50;;;21.90;96.30;;;;;;7382902;19;20363;-46
2022/08/26 06:44:20;;;;;;;11.10;6.13;;;22.10;95.20;;;;;;7385808;19;20372;-46
2022/08/26 06:46:50;;;;;;;6.23;5.63;;;22.10;95.00;;;;;;7386629;19;20974;-46
2022/08/26 06:49:20;;;;;;;6.40;5.70;;;22.00;95.50;;;;;;7384319;19;20933;-46
2022/08/26 06:51:49;;;;;;;8.93;6.60;;;22.00;95.30;;;;;;7385574;19;20383;-46
2022/08/26 06:54:20;;;;;;;5.70;5.20;;;22.10;95.30;;;;;;7385585;19;21492;-46
2022/08/26 06:56:52;;;;;;;6.40;5.80;;;22.00;94.60;;;;;;7382860;19;20387;-46
2022/08/26 06:59:21;;;;;;;9.17;6.83;;;22.30;93.70;;;;;;7387260;19;20409;-47
2022/08/26 07:01:51;;;;;;;7.47;6.70;;;22.40;92.50;;;;;;7380484;19;20428;-47
2022/08/26 07:04:20;;;;;;;7.90;6.50;;;22.50;91.20;;;;;;7376268;19;20983;-47
2022/08/26 07:06:50;;;;;;;7.53;6.83;;;22.50;90.90;;;;;;7380655;19;20375;-47
2022/08/26 07:09:20;;;;;;;8.10;7.30;;;22.60;90.30;;;;;;7375071;19;20364;-47
2022/08/26 07:11:54;;;;;;;8.70;6.53;;;22.60;90.10;;;;;;7380639;19;20376;-47
2022/08/26 07:14:27;;;;;;;8.73;6.50;;;22.50;90.50;;;;;;7379997;19;20411;-47
2022/08/26 07:16:58;;;;;;;9.20;6.87;;;22.60;89.60;;;;;;7380955;19;20380;-48
2022/08/26 07:19:30;;;;;;;13.33;6.33;;;22.80;88.00;;;;;;7385570;19;20380;-47
2022/08/26 07:22:00;;;;;;;13.47;6.90;;;23.00;86.40;;;;;;7382777;19;20400;-47
2022/08/26 07:24:30;;;;;;;9.37;7.50;;;23.20;85.30;;;;;;7382254;19;20754;-47
2022/08/26 07:27:07;;;;;;;8.90;6.70;;;23.30;83.40;;;;;;7387307;19;20392;-47
2022/08/26 07:29:41;;;;;;;7.57;6.07;;;23.50;82.60;;;;;;7377214;19;20519;-48
2022/08/26 07:32:12;;;;;;;8.53;6.00;;;23.80;81.70;;;;;;7384611;19;20380;-48
2022/08/26 07:34:42;;;;;;;5.83;5.33;;;24.00;80.00;;;;;;7383935;19;20377;-46
2022/08/26 07:37:12;;;;;;;7.00;6.30;;;24.20;78.40;;;;;;7385998;19;20377;-48
2022/08/26 07:39:41;;;;;;;7.60;5.53;;;24.30;77.00;;;;;;7386255;19;20376;-47
2022/08/26 07:42:15;;;;;;;8.57;5.60;;;24.40;75.60;;;;;;7387037;19;20789;-47
2022/08/26 07:44:47;;;;;;;8.37;5.80;;;24.60;74.00;;;;;;7386056;19;20761;-47
2022/08/26 07:47:17;;;;;;;6.20;5.27;;;24.90;72.90;;;;;;7379476;19;21258;-47
2022/08/26 07:49:47;;;;;;;6.70;5.60;;;25.20;71.10;;;;;;7386560;19;20376;-47
2022/08/26 07:52:16;;;;;;;7.00;5.63;;;25.40;69.60;;;;;;7380091;19;20387;-47
2022/08/26 07:54:48;;;;;;;7.47;6.07;;;25.70;68.40;;;;;;7383914;19;20728;-47
2022/08/26 07:57:20;;;;;;;6.27;5.67;;;25.90;67.80;;;;;;7382034;19;20913;-47
2022/08/26 07:59:50;;;;;;;7.87;5.60;;;26.10;66.90;;;;;;7381856;19;20380;-47
2022/08/26 08:02:19;;;;;;;10.03;6.30;;;26.30;65.50;;;;;;7383307;19;20416;-47
2022/08/26 08:04:49;;;;;;;6.67;6.03;;;26.50;64.60;;;;;;7384555;19;20395;-47
2022/08/26 08:07:18;;;;;;;5.93;5.30;;;26.70;63.70;;;;;;7381497;19;20376;-48
2022/08/26 08:09:50;;;;;;;11.40;6.17;;;26.90;62.70;;;;;;7384144;19;20432;-46
2022/08/26 08:12:22;;;;;;;5.47;4.90;;;27.10;61.90;;;;;;7384987;19;20376;-47
2022/08/26 08:14:51;;;;;;;8.10;5.87;;;27.30;60.40;;;;;;7380882;19;20890;-47
2022/08/26 08:17:21;;;;;;;12.47;5.90;;;27.50;60.00;;;;;;7384570;19;20365;-47
2022/08/26 08:19:50;;;;;;;6.80;4.77;;;27.70;59.60;;;;;;7383356;19;20477;-47
2022/08/26 08:22:22;;;;;;;7.40;5.60;;;28.00;58.40;;;;;;7385893;19;20368;-47
2022/08/26 08:24:51;;;;;;;5.80;5.23;;;28.10;57.80;;;;;;7383457;19;20375;-47
2022/08/26 08:27:24;;;;;;;6.70;5.87;;;28.50;57.20;;;;;;7384747;19;20756;-47
2022/08/26 08:29:55;;;;;;;7.77;5.50;;;28.70;56.20;;;;;;7381189;19;20414;-47
2022/08/26 08:32:25;;;;;;;5.33;4.90;;;28.80;55.60;;;;;;7384002;19;20377;-46
2022/08/26 08:34:54;;;;;;;7.27;4.90;;;29.20;55.40;;;;;;7385668;19;20387;-47
2022/08/26 08:37:24;;;;;;;5.93;5.30;;;29.50;54.00;;;;;;7384665;19;20843;-46
2022/08/26 08:39:54;;;;;;;8.50;5.10;;;29.80;53.00;;;;;;7384897;19;20368;-48
2022/08/26 08:42:44;;;;;;;6.77;6.07;;;30.00;52.70;;;;;;7382014;19;20380;-48
2022/08/26 08:45:23;;;;;;;13.50;5.33;;;30.50;51.70;;;;;;7383288;19;20477;-48
2022/08/26 08:47:59;;;;;;;8.90;5.50;;;30.80;50.80;;;;;;7384086;19;20398;-48
2022/08/26 08:50:33;;;;;;;5.00;4.40;;;31.20;50.20;;;;;;7382185;19;20391;-48
2022/08/26 08:53:12;;;;;;;5.03;4.50;;;31.60;49.00;;;;;;7379378;19;20790;-47
2022/08/26 08:55:50;;;;;;;5.83;4.90;;;31.80;48.30;;;;;;7382645;19;20388;-48
2022/08/26 08:58:31;;;;;;;4.80;4.20;;;31.80;48.00;;;;;;7378783;19;20420;-49
2022/08/26 09:01:06;;;;;;;6.00;5.20;;;32.10;47.40;;;;;;7383356;19;21095;-49
2022/08/26 09:03:47;;;;;;;8.43;4.60;;;32.50;46.50;;;;;;7382447;19;20913;-48
2022/08/26 09:06:19;;;;;;;4.50;4.10;;;33.10;45.70;;;;;;7378279;19;20388;-49
2022/08/26 09:08:50;;;;;;;7.60;4.40;;;33.60;44.60;;;;;;7379628;19;20391;-49
2022/08/26 09:11:21;;;;;;;6.80;4.70;;;33.70;44.30;;;;;;7378814;19;20957;-48
2022/08/26 09:13:57;;;;;;;4.83;4.33;;;33.90;43.40;;;;;;7380183;19;20383;-48
2022/08/26 09:16:41;;;;;;;5.43;4.60;;;34.00;43.80;;;;;;7376106;19;20368;-48
2022/08/26 09:19:19;;;;;;;5.20;4.27;;;33.80;43.10;;;;;;7380859;19;20516;-48
2022/08/26 09:21:57;;;;;;;4.63;4.00;;;33.60;43.30;;;;;;7382459;19;20415;-48
2022/08/26 09:24:27;;;;;;;5.50;4.63;;;33.10;43.80;;;;;;7381185;19;20384;-47
2022/08/26 09:27:01;;;;;;;6.47;4.40;;;32.80;44.30;;;;;;7381268;19;20905;-47
2022/08/26 09:29:45;;;;;;;5.07;4.57;;;32.30;45.10;;;;;;7381784;19;20954;-47
2022/08/26 09:32:22;;;;;;;4.40;4.00;;;32.50;45.50;;;;;;7379779;19;20384;-48
2022/08/26 09:34:59;;;;;;;6.07;4.63;;;32.80;44.70;;;;;;7381523;19;20463;-48
2022/08/26 09:37:37;;;;;;;4.40;4.00;;;33.30;44.20;;;;;;7378714;19;20376;-48
2022/08/26 09:40:21;;;;;;;4.53;4.10;;;33.50;43.50;;;;;;7380573;19;20454;-48
2022/08/26 09:43:09;;;;;;;5.60;3.93;;;33.60;43.50;;;;;;7378016;19;20398;-47
2022/08/26 09:45:42;;;;;;;4.20;3.80;;;33.00;44.30;;;;;;7383199;19;20376;-47
2022/08/26 09:48:27;;;;;;;7.93;5.13;;;33.00;44.50;;;;;;7380170;19;20909;-48
2022/08/26 09:50:59;;;;;;;5.20;4.57;;;33.20;44.60;;;;;;7382146;19;20372;-48
2022/08/26 09:53:30;;;;;;;7.00;4.43;;;33.30;44.10;;;;;;7382719;19;20404;-48
2022/08/26 09:56:18;;;;;;;4.80;4.30;;;33.40;43.90;;;;;;7379839;19;20391;-48
2022/08/26 09:58:49;;;;;;;4.70;4.30;;;33.70;43.50;;;;;;7380367;19;20923;-48
2022/08/26 10:01:31;;;;;;;5.13;4.60;;;34.30;42.40;;;;;;7381135;19;20424;-48
2022/08/26 10:04:10;;;;;;;4.77;4.00;;;35.40;41.00;;;;;;7379404;19;20959;-48
2022/08/26 10:06:43;;;;;;;5.13;4.13;;;36.20;39.70;;;;;;7379889;19;20412;-48
2022/08/26 10:09:18;;;;;;;6.20;3.87;;;37.00;38.70;;;;;;7379925;19;20379;-48
2022/08/26 10:11:52;;;;;;;8.30;5.30;;;37.80;37.20;;;;;;7379682;19;20376;-49
2022/08/26 10:14:27;;;;;;;4.37;3.43;;;38.10;36.80;;;;;;7382255;19;20382;-49
2022/08/26 10:17:04;;;;;;;7.30;4.50;;;38.80;35.60;;;;;;7383835;19;20383;-49
2022/08/26 10:19:40;;;;;;;4.10;3.67;;;39.30;35.00;;;;;;7386473;19;20726;-49
2022/08/26 10:22:16;;;;;;;5.57;4.87;;;39.80;34.20;;;;;;7389220;19;20380;-49
2022/08/26 10:24:51;;;;;;;5.43;4.10;;;40.10;33.70;;;;;;7389240;19;20375;-49
2022/08/26 10:27:33;;;;;;;9.17;4.70;;;40.10;33.60;;;;;;7387985;19;20376;-49
2022/08/26 10:30:09;;;;;;;8.20;4.63;;;40.50;33.00;;;;;;7385848;19;20983;-49
2022/08/26 10:32:44;;;;;;;4.70;4.17;;;41.00;32.50;;;;;;7385249;19;20392;-49
2022/08/26 10:35:16;;;;;;;7.53;4.93;;;41.20;31.80;;;;;;7388765;19;20376;-49
2022/08/26 10:37:49;;;;;;;6.70;4.83;;;41.40;31.70;;;;;;7387697;19;20380;-49
2022/08/26 10:40:25;;;;;;;5.30;4.47;;;41.70;31.20;;;;;;7386488;19;20742;-49
2022/08/26 10:43:00;;;;;;;5.87;4.50;;;42.20;30.60;;;;;;7387256;19;20367;-49
2022/08/26 10:45:31;;;;;;;6.47;5.10;;;;;;;;;;7385717;19;20382;-47
2022/08/26 10:48:09;;;;;;;7.00;4.77;;;43.30;29.10;;;;;;7387073;19;20440;-47
2022/08/26 10:50:41;;;;;;;5.47;4.70;;;43.50;29.20;;;;;;7386180;19;20375;-47
2022/08/26 10:53:18;;;;;;;6.73;4.67;;;43.30;28.80;;;;;;7385777;19;20382;-47
2022/08/26 10:55:58;;;;;;;5.30;4.53;;;43.30;28.80;;;;;;7383130;19;20380;-48
2022/08/26 10:58:54;;;;;;;7.40;5.47;;;42.50;29.40;;;;;;7386505;19;20375;-48
2022/08/26 11:01:48;;;;;;;11.63;5.77;;;41.00;30.20;;;;;;7379677;19;20803;-47
2022/08/26 11:04:45;;;;;;;9.23;4.97;;;39.50;32.40;;;;;;7385707;19;20957;-49
2022/08/26 11:07:31;;;;;;;7.20;5.33;;;38.10;34.10;;;;;;7384655;19;20409;-49
2022/08/26 11:10:02;;;;;;;7.43;5.70;;;37.00;35.70;;;;;;7383948;19;20372;-49
2022/08/26 11:12:57;;;;;;;10.93;9.73;;;36.90;36.00;;;;;;7386504;19;20777;-47
2022/08/26 11:16:11;;;;;;;5.83;5.03;;;38.20;34.90;;;;;;7385773;19;20913;-47
2022/08/26 11:18:47;;;;;;;4.37;3.97;;;39.90;32.50;;;;;;7382924;19;20364;-47
2022/08/26 11:21:46;;;;;;;6.87;4.97;;;41.10;31.00;;;;;;7382666;19;20375;-47
2022/08/26 11:24:47;;;;;;;7.10;4.70;;;42.40;29.20;;;;;;7385869;19;20372;-47
2022/08/26 11:27:46;;;;;;;5.17;4.77;;;43.10;29.00;;;;;;7385440;19;20376;-47
2022/08/26 11:30:36;;;;;;;5.20;4.00;;;43.40;28.50;;;;;;7387117;19;20369;-47
2022/08/26 11:33:06;;;;;;;7.23;4.33;;;43.30;27.40;;;;;;7386035;19;20372;-47
2022/08/26 11:35:52;;;;;;;5.63;4.07;;;43.50;28.00;;;;;;7382692;19;20379;-47
2022/08/26 11:38:30;;;;;;;5.63;4.30;;;44.10;28.10;;;;;;7381700;19;20396;-47
2022/08/26 11:41:11;;;;;;;5.40;4.87;;;43.70;28.30;;;;;;7386677;19;20390;-48
2022/08/26 11:43:48;;;;;;;6.30;5.00;;;43.10;28.90;;;;;;7383905;19;20410;-48
2022/08/26 11:46:26;;;;;;;8.77;4.83;;;41.80;29.80;;;;;;7386225;19;20368;-48
2022/08/26 11:49:04;;;;;;;5.50;4.70;;;40.20;31.50;;;;;;7384984;19;20385;-48
2022/08/26 11:51:35;;;;;;;8.07;5.90;;;38.70;33.30;;;;;;7385094;19;20389;-48
2022/08/26 11:54:11;;;;;;;5.83;4.60;;;38.00;34.40;;;;;;7382699;19;20380;-48
2022/08/26 11:56:46;;;;;;;12.10;5.60;;;37.20;35.70;;;;;;7382529;19;20427;-49
2022/08/26 11:59:21;;;;;;;5.63;5.07;;;36.80;36.40;;;;;;7384266;19;20396;-49
2022/08/26 12:01:55;;;;;;;8.30;6.10;;;37.00;36.50;;;;;;7383077;19;20438;-49
2022/08/26 12:04:31;;;;;;;12.20;6.00;;;37.70;35.30;;;;;;7380809;19;20857;-50
2022/08/26 12:07:03;;;;;;;6.27;5.17;;;38.60;34.20;;;;;;7382738;19;20751;-50
2022/08/26 12:09:34;;;;;;;7.00;5.40;;;40.00;32.40;;;;;;7378442;19;20427;-49
2022/08/26 12:12:18;;;;;;;5.60;4.80;;;40.50;31.60;;;;;;7382115;19;20807;-49
2022/08/26 12:14:47;;;;;;;8.13;5.70;;;41.90;29.90;;;;;;7382893;19;20435;-49
2022/08/26 12:17:30;;;;;;;5.83;5.17;;;42.70;29.10;;;;;;7383221;19;20483;-49
2022/08/26 12:20:00;;;;;;;8.77;5.27;;;43.60;28.10;;;;;;7382916;19;20384;-48
2022/08/26 12:22:37;;;;;;;6.17;5.57;;;44.10;28.00;;;;;;7382273;19;20728;-47
2022/08/26 12:25:10;;;;;;;6.10;5.13;;;44.60;27.60;;;;;;7384236;19;20372;-48
2022/08/26 12:27:47;;;;;;;8.33;6.20;;;44.70;27.70;;;;;;7385301;19;20367;-48
2022/08/26 12:30:21;;;;;;;6.70;4.37;;;45.10;27.20;;;;;;7385082;19;20375;-48
2022/08/26 12:33:05;;;;;;;5.30;4.80;;;45.40;26.90;;;;;;7379448;19;20754;-49
2022/08/26 12:35:40;;;;;;;5.50;4.97;;;45.40;26.90;;;;;;7382466;19;20364;-48
2022/08/26 12:38:13;;;;;;;5.73;4.87;;;45.30;26.70;;;;;;7375951;19;20380;-49
2022/08/26 12:40:46;;;;;;;11.07;5.30;;;45.40;26.90;;;;;;7381135;19;20375;-49
2022/08/26 12:43:41;;;;;;;7.70;5.10;;;45.30;27.30;;;;;;7381149;19;20376;-50
2022/08/26 12:46:14;;;;;;;6.83;5.87;;;45.40;27.10;;;;;;7383784;19;20372;-50
2022/08/26 12:48:45;;;;;;;10.70;6.00;;;44.40;27.80;;;;;;7382169;19;20377;-50
2022/08/26 12:51:23;;;;;;;8.50;5.80;;;42.90;28.90;;;;;;7380227;19;21025;-50
2022/08/26 12:53:53;;;;;;;8.00;5.97;;;41.20;30.80;;;;;;7379593;19;20379;-50
2022/08/26 12:56:35;;;;;;;9.00;6.60;;;40.10;31.60;;;;;;7381035;19;20376;-50
2022/08/26 12:59:20;;;;;;;8.40;5.33;;;39.50;32.60;;;;;;7382773;19;20769;-50
2022/08/26 13:01:54;;;;;;;7.93;5.50;;;39.10;33.30;;;;;;7380726;19;21182;-50
2022/08/26 13:04:39;;;;;;;7.47;5.40;;;39.70;32.80;;;;;;7382033;19;20368;-50
2022/08/26 13:07:23;;;;;;;6.77;4.83;;;40.50;31.50;;;;;;7379641;19;20357;-50
2022/08/26 13:09:58;;;;;;;11.27;5.30;;;41.40;30.40;;;;;;7383829;19;20352;-50
2022/08/26 13:12:32;;;;;;;6.97;5.20;;;41.90;29.90;;;;;;7379806;19;20443;-50
2022/08/26 13:15:05;;;;;;;7.73;5.50;;;42.70;29.60;;;;;;7377536;19;20368;-50
2022/08/26 13:17:36;;;;;;;8.17;5.33;;;43.00;28.80;;;;;;7356412;19;20431;-50
2022/08/26 13:20:06;;;;;;;11.90;6.33;;;41.70;29.60;;;;;;7377521;19;20380;-50
2022/08/26 13:22:37;;;;;;;8.43;5.80;;;40.10;31.40;;;;;;7379598;19;20368;-50
2022/08/26 13:25:07;;;;;;;6.80;6.10;;;39.30;32.70;;;;;;7383712;19;20376;-49